Strona główna
METAR-TAF:

METAR-TAF

Lotnisko :

Casement Aerodrome

Dublin, Irlandia

Szerokość geograficzna: 53-18-06N, Długość geograficzna: 6-27-04W, wysokość: 97 m

Aktualna obserwacja pogody

Raport powstał 27 minut temu, godzina 01:00 UTC
Wiatr 10 kt od zachodnio-południowy zachód
Temperatura 7°C
Wilgotność 76%
Ciśnienie 1043 hPa
Widzialność 10 km lub więcej
Mało chmury na wysokości 1800 ft
Przerywane chmury na wysokości 2500 ft

METAR: EIME 210100Z 24010KT 9999 FEW018 BKN025 07/03 Q1043

czas: 01:27 (01:27 UTC)

Prognoza

Raport powstał 2 godziny i 27 minut temu, godzina 23:00 UTC
Prognoza ważna od 21 godzina 00 UTC do 21 godzina 09 UTC
Wiatr 9 kt od południowy zachód
Widzialność 10 km lub więcej
Przerywane chmury na wysokości 2000 ft
Przejściowo
od 21 godzina 07 UTC do 21 godzina 09 UTC
Przerywane chmury na wysokości 1000 ft
słaby mżawka

TAF: EIME 202300Z 2100/2109 23009KT 9999 BKN020 TEMPO 2107/2109 -DZ BKN010

Obserwacja i prognoza pogody dla ponad 4000 lotnisk (raport METAR i TAF).

Dostępne stacje oznaczono żółtymi i czerwonymi punktami na mapie.

Najedź kursorem aby zobaczyć nazwę stacji.

Kliknij aby zobaczyć obserwacje i prognozy pogody.

Aby zmienić mapę: kliknij na zielony przycisk z czarnym krzyżykiem, aby powiększyć; na zielony przycisk z myślnikiem, aby pomniejszyć; na zielone strzałki, aby przejść do map sąsiednich.


METAR-TAF: